Etusivu
METAR-TAF:

METAR-TAF

Lentoasemat :

Watertown Municipal Airport

Watertown, Wisconsin, Yhdysvallat

Leveyspiiri: 43-10N, Pituuspiiri: 088-43W, korkeus merenpinnasta: 254 m

Tämänhetkinen sää

Tämä raportti tehtiin 17 minuuttia sitten, kello 16.55 UTC
Tuuli 7 kn pohjoisesta/koillisesta
Lämpötila 21°C
Kosteus 69%
Ilmanpaine 1007 hPa
Näkyvyys: 16.1 km
Hajonneita pilviä 2900 ft:n korkeudessa

METAR: KRYV 201655Z AUTO 02007KT 10SM BKN029 21/15 A2975 RMK AO2 T02060151

Aika: 12:12 (17:12 UTC)


TAF: puuttuu

Säähavainnot ja -ennusteet yli 4000 lentoasemalta (METAR- ja TAF-raportit).

Käytössä olevat sääasemat on merkitty karttaan keltaisilla ja punaisilla pisteillä.

Aseta hiiri pisteen päälle nähdäksesi sääaseman nimen.

Klikkaa sitten nähdäksesi säähavainnot ja -ennusteet.

Kartan vaihtaminen: klikkaa mustalla rastilla varustettuja vihreitä pisteitä, niin voit zoomata sisään; viivalla varustettua vihreää pistettä, niin voit zoomata ulos tai vihreitä nuolia, niin pääset viereisille kartoille.


METAR-TAF: